Terminal Aerodrome Forecast
Issued by NWS Wichita, KS

Home | Current Version | Previous Version | Graphics & Text | Print | Product List | Glossary On
Versions: 1 2 3 4 5 6 7 8 9 10 11 12 13 14
000
FTUS43 KICT 031138
TAFICT
TAF
KICT 031138Z 0312/0412 17015KT P6SM SCT250
     FM031800 18020G28KT P6SM FEW035
     FM040300 15013KT P6SM BKN035=

USA.gov is the U.S. government's official web portal to all federal, state and local government web resources and services.